Time;durP1;ratioP1;P1;durP2;ratioP2;P2;SDS_P1;SDS_P2;PMS_P1;PMS_P2;Temp;Humidity;BMP_temperature;BMP_pressure;BME280_temperature;BME280_humidity;BME280_pressure;Samples;Min_cycle;Max_cycle;Signal;HPM_P1;HPM_P2
2023/03/01 00:01:02;;;;;;;17.20;9.45;;;-0.60;99.90;;;;;;5125630;28;20043;-77
2023/03/01 00:03:28;;;;;;;20.20;11.43;;;1.10;99.90;;;;;;5128151;28;20050;-77
2023/03/01 00:05:54;;;;;;;19.20;11.27;;;-0.60;99.90;;;;;;5107866;28;20047;-77
2023/03/01 00:08:20;;;;;;;20.73;11.50;;;-0.60;99.90;;;;;;5126661;28;20477;-77
2023/03/01 00:10:46;;;;;;;18.15;10.55;;;0.90;99.90;;;;;;5107848;28;20035;-77
2023/03/01 00:13:11;;;;;;;17.50;9.93;;;-0.70;99.90;;;;;;5126259;28;20094;-77
2023/03/01 00:15:41;;;;;;;15.80;10.18;;;-0.70;99.90;;;;;;5127072;28;20043;-78
2023/03/01 00:18:08;;;;;;;15.02;9.73;;;-0.60;99.90;;;;;;5090175;28;20432;-78
2023/03/01 00:20:34;;;;;;;17.77;9.60;;;-0.60;99.90;;;;;;5108866;28;20513;-78
2023/03/01 00:23:00;;;;;;;15.45;9.27;;;-0.60;99.90;;;;;;5125575;28;20088;-78
2023/03/01 00:25:26;;;;;;;17.25;10.30;;;-0.60;99.90;;;;;;5130164;27;20419;-78
2023/03/01 00:27:51;;;;;;;16.58;10.35;;;0.80;99.90;;;;;;5095049;27;20046;-77
2023/03/01 00:30:17;;;;;;;14.82;10.07;;;-0.30;99.90;;;;;;5111418;27;20039;-77
2023/03/01 00:32:43;;;;;;;18.17;9.85;;;-0.70;99.90;;;;;;5112671;27;20482;-78
2023/03/01 00:35:09;;;;;;;15.23;9.15;;;-0.70;99.90;;;;;;5129326;27;20156;-77
2023/03/01 00:37:35;;;;;;;19.55;10.10;;;-0.80;99.90;;;;;;5096283;27;20051;-77
2023/03/01 00:40:00;;;;;;;18.38;10.18;;;-0.80;99.90;;;;;;5077113;27;20375;-78
2023/03/01 00:42:26;;;;;;;17.65;9.80;;;-0.80;99.90;;;;;;5095433;27;20045;-78
2023/03/01 00:44:52;;;;;;;16.05;9.77;;;-1.10;99.90;;;;;;5094883;27;20112;-78
2023/03/01 00:47:18;;;;;;;14.35;9.45;;;-0.90;99.90;;;;;;5129599;27;20444;-78
2023/03/01 00:49:43;;;;;;;23.80;10.60;;;-0.80;99.90;;;;;;5094644;27;20562;-78
2023/03/01 00:52:09;;;;;;;15.93;9.45;;;-0.90;99.90;;;;;;5129040;27;20104;-78
2023/03/01 00:54:35;;;;;;;15.00;9.13;;;0.20;99.90;;;;;;5112544;27;20054;-78
2023/03/01 00:57:01;;;;;;;13.85;9.48;;;-0.90;99.90;;;;;;5110289;27;20561;-78
2023/03/01 00:59:26;;;;;;;20.85;10.85;;;-0.90;99.90;;;;;;5094874;27;20045;-77
2023/03/01 01:01:52;;;;;;;16.60;10.00;;;-0.90;99.90;;;;;;5111119;27;20086;-77
2023/03/01 01:04:18;;;;;;;13.43;8.70;;;-0.90;99.90;;;;;;5111217;27;20421;-78
2023/03/01 01:06:46;;;;;;;15.93;8.93;;;-0.90;99.90;;;;;;5094571;27;20039;-78
2023/03/01 01:09:17;;;;;;;16.17;9.32;;;0.60;99.90;;;;;;5110628;27;20118;-78
2023/03/01 01:11:46;;;;;;;15.82;9.93;;;0.50;99.90;;;;;;5130623;27;20519;-79
2023/03/01 01:14:12;;;;;;;16.85;9.60;;;0.40;99.90;;;;;;5110493;27;20039;-78
2023/03/01 01:16:38;;;;;;;18.20;9.82;;;-1.00;99.90;;;;;;5129924;27;20513;-78
2023/03/01 01:19:04;;;;;;;14.55;9.32;;;-1.00;99.90;;;;;;5110596;27;20039;-78
2023/03/01 01:21:30;;;;;;;16.40;9.45;;;-1.00;99.90;;;;;;5110416;27;20035;-78
2023/03/01 01:23:57;;;;;;;18.77;10.88;;;-1.70;99.90;;;;;;5111450;27;20408;-78
2023/03/01 01:26:25;;;;;;;21.00;11.02;;;-1.00;99.90;;;;;;5127902;27;20527;-78
2023/03/01 01:28:55;;;;;;;18.50;10.27;;;-1.00;99.90;;;;;;5130253;27;20493;-79
2023/03/01 01:31:23;;;;;;;17.63;9.73;;;-1.00;99.90;;;;;;5128272;27;20039;-79
2023/03/01 01:33:49;;;;;;;16.88;8.82;;;-1.00;99.90;;;;;;5111895;27;20047;-79
2023/03/01 01:36:16;;;;;;;20.88;10.60;;;0.40;99.90;;;;;;5076170;27;20096;-78
2023/03/01 01:38:44;;;;;;;23.95;10.77;;;-1.00;99.90;;;;;;5129086;27;20092;-78
2023/03/01 01:41:12;;;;;;;18.58;9.23;;;0.00;99.90;;;;;;5094633;27;20054;-78
2023/03/01 01:43:41;;;;;;;14.63;9.18;;;-1.10;99.90;;;;;;5127996;27;20544;-78
2023/03/01 01:46:26;;;;;;;20.23;9.80;;;-0.10;99.90;;;;;;5130221;27;20126;-78
2023/03/01 01:49:00;;;;;;;20.33;10.68;;;-1.10;99.90;;;;;;5127896;27;20546;-78
2023/03/01 01:51:37;;;;;;;24.98;10.65;;;-1.10;99.90;;;;;;5128716;27;20055;-78
2023/03/01 01:54:16;;;;;;;33.58;10.48;;;-1.10;99.90;;;;;;5129318;27;20039;-78
2023/03/01 01:56:48;;;;;;;83.50;11.25;;;-1.20;99.90;;;;;;5108960;27;20031;-77
2023/03/01 01:59:14;;;;;;;104.88;11.57;;;-1.20;99.90;;;;;;5111493;27;20416;-78
2023/03/01 02:01:40;;;;;;;55.42;9.18;;;-1.20;99.90;;;;;;5092571;27;20054;-78
2023/03/01 02:04:06;;;;;;;17.75;8.48;;;-1.30;99.90;;;;;;5110490;27;20039;-78
2023/03/01 02:06:44;;;;;;;33.72;10.88;;;-1.30;99.90;;;;;;5093245;27;20078;-77
2023/03/01 02:09:14;;;;;;;27.98;8.52;;;-1.30;99.90;;;;;;5127808;27;20054;-78
2023/03/01 02:11:40;;;;;;;35.17;7.95;;;-1.30;99.90;;;;;;5128983;27;20043;-78
2023/03/01 02:14:06;;;;;;;14.45;8.80;;;-1.40;99.90;;;;;;5127142;27;20092;-78
2023/03/01 02:16:32;;;;;;;18.17;8.43;;;-1.40;99.90;;;;;;5110601;27;20528;-78
2023/03/01 02:18:58;;;;;;;19.00;8.32;;;-1.40;99.90;;;;;;5092406;27;20054;-77
2023/03/01 02:21:27;;;;;;;40.28;7.95;;;-1.40;99.90;;;;;;5127661;27;20077;-77
2023/03/01 02:23:55;;;;;;;75.03;8.07;;;-1.40;99.90;;;;;;5109691;27;20051;-77
2023/03/01 02:26:31;;;;;;;18.85;6.72;;;-1.40;99.90;;;;;;5127418;27;20135;-78
2023/03/01 02:28:57;;;;;;;40.92;7.15;;;-1.40;99.90;;;;;;5129012;27;20051;-77
2023/03/01 02:34:10;;;;;;;20.60;7.35;;;-1.50;99.90;;;;;;5112400;27;20039;-77
2023/03/01 02:36:46;;;;;;;11.77;6.80;;;-1.50;99.90;;;;;;5108828;27;20039;-77
2023/03/01 02:39:21;;;;;;;18.23;6.72;;;0.10;99.90;;;;;;5126719;27;20110;-77
2023/03/01 02:41:53;;;;;;;27.42;7.05;;;-1.60;99.90;;;;;;5128863;27;20050;-77
2023/03/01 02:44:21;;;;;;;6.85;4.25;;;-1.60;99.90;;;;;;5108435;27;20046;-77
2023/03/01 02:46:52;;;;;;;12.52;6.20;;;-0.40;99.90;;;;;;5109231;27;20502;-77
2023/03/01 02:49:38;;;;;;;10.32;6.20;;;-1.70;99.90;;;;;;5104890;28;20089;-77
2023/03/01 02:52:33;;;;;;;11.30;6.32;;;-1.70;99.90;;;;;;5087354;28;20062;-77
2023/03/01 02:55:07;;;;;;;11.35;6.07;;;-1.70;99.90;;;;;;5108115;28;20526;-77
2023/03/01 02:57:35;;;;;;;14.23;6.65;;;-1.80;99.90;;;;;;5105423;28;20127;-77
2023/03/01 03:00:09;;;;;;;10.13;6.47;;;-1.80;99.90;;;;;;5106679;28;20032;-77
2023/03/01 03:02:35;;;;;;;10.88;5.95;;;-1.90;99.90;;;;;;5105553;28;20053;-77
2023/03/01 03:05:12;;;;;;;12.98;6.60;;;-0.60;99.90;;;;;;5070425;28;20043;-77
2023/03/01 03:07:41;;;;;;;10.45;6.13;;;-1.90;99.90;;;;;;5107499;28;20090;-77
2023/03/01 03:10:14;;;;;;;10.10;6.07;;;-1.90;99.90;;;;;;5105615;28;20082;-77
2023/03/01 03:12:40;;;;;;;9.77;6.03;;;-1.90;99.90;;;;;;5105324;28;20546;-77
2023/03/01 03:15:09;;;;;;;15.38;7.68;;;-2.00;99.90;;;;;;5105196;28;20199;-77
2023/03/01 03:17:41;;;;;;;12.05;6.93;;;-2.00;99.90;;;;;;5106312;28;20126;-77
2023/03/01 03:20:11;;;;;;;14.15;8.02;;;-2.00;99.90;;;;;;5107318;28;20467;-76
2023/03/01 03:22:41;;;;;;;16.23;7.43;;;-2.00;99.90;;;;;;5106036;28;20053;-77
2023/03/01 03:25:11;;;;;;;15.25;8.07;;;-2.00;99.90;;;;;;5072193;28;20084;-77
2023/03/01 03:27:38;;;;;;;12.35;6.97;;;-2.00;99.90;;;;;;5105975;28;20245;-77
2023/03/01 03:30:09;;;;;;;13.00;7.45;;;-2.00;99.90;;;;;;5106150;28;20039;-77
2023/03/01 03:32:39;;;;;;;13.93;8.15;;;-2.10;99.90;;;;;;5107053;28;20047;-78
2023/03/01 03:35:11;;;;;;;13.45;8.15;;;-2.10;99.90;;;;;;5087321;28;20451;-77
2023/03/01 03:40:25;;;;;;;13.45;7.30;;;-2.10;99.90;;;;;;5104159;28;20174;-78
2023/03/01 03:42:51;;;;;;;16.05;8.15;;;-1.80;99.90;;;;;;5105977;28;20517;-78
2023/03/01 03:45:17;;;;;;;15.38;8.15;;;-3.50;99.90;;;;;;5104867;28;20118;-78
2023/03/01 03:47:43;;;;;;;13.00;7.85;;;-2.80;99.90;;;;;;5106080;27;20410;-79
2023/03/01 03:50:11;;;;;;;14.23;7.35;;;-2.20;99.90;;;;;;5127612;27;20035;-79
2023/03/01 03:52:36;;;;;;;13.68;8.05;;;-2.20;99.90;;;;;;5125534;27;20082;-78
2023/03/01 03:55:03;;;;;;;14.20;8.35;;;-2.20;99.90;;;;;;5108595;28;20082;-78
2023/03/01 03:57:28;;;;;;;15.93;8.50;;;-2.20;99.90;;;;;;5126182;28;20059;-78
2023/03/01 03:59:54;;;;;;;14.10;7.35;;;-2.20;99.90;;;;;;5091209;28;20041;-78
2023/03/01 04:02:24;;;;;;;14.02;7.30;;;-2.30;99.90;;;;;;5108138;28;20394;-78
2023/03/01 04:04:49;;;;;;;13.13;7.82;;;-0.60;99.90;;;;;;5126075;28;20047;-80
2023/03/01 04:07:16;;;;;;;15.52;8.60;;;-2.30;99.90;;;;;;5127050;28;20126;-79
2023/03/01 04:09:43;;;;;;;16.85;7.85;;;-2.00;99.90;;;;;;5106812;28;20062;-79
2023/03/01 04:12:10;;;;;;;13.23;7.10;;;-2.20;99.90;;;;;;5108760;28;20050;-80
2023/03/01 04:14:36;;;;;;;16.70;6.78;;;-2.20;99.90;;;;;;5125987;28;20043;-79
2023/03/01 04:17:05;;;;;;;12.25;7.18;;;-2.30;99.90;;;;;;5107949;28;20057;-79
2023/03/01 04:19:35;;;;;;;16.73;8.02;;;-2.30;99.90;;;;;;5126604;28;20085;-77
2023/03/01 04:22:09;;;;;;;50.97;8.15;;;-2.30;99.90;;;;;;5106789;28;20133;-77
2023/03/01 04:24:35;;;;;;;59.03;9.02;;;-2.40;99.90;;;;;;5127368;28;20051;-77
2023/03/01 04:27:02;;;;;;;14.00;7.68;;;-2.40;99.90;;;;;;5125010;28;20039;-77
2023/03/01 04:29:28;;;;;;;28.42;7.57;;;-2.40;99.90;;;;;;5108387;28;20078;-77
2023/03/01 04:31:54;;;;;;;20.45;8.05;;;-2.40;99.90;;;;;;5125465;28;20096;-77
2023/03/01 04:34:20;;;;;;;74.50;10.73;;;-1.70;99.90;;;;;;5126057;28;20484;-77
2023/03/01 04:36:46;;;;;;;70.97;9.93;;;-2.40;99.90;;;;;;5107701;28;20078;-78
2023/03/01 04:39:12;;;;;;;31.80;8.60;;;-2.50;99.90;;;;;;5106620;28;20455;-78
2023/03/01 04:41:39;;;;;;;69.00;10.82;;;-2.40;99.90;;;;;;5126683;28;20035;-78
2023/03/01 04:44:05;;;;;;;23.08;7.28;;;-2.40;99.90;;;;;;5106849;28;20043;-78
2023/03/01 04:46:31;;;;;;;21.52;8.02;;;-2.40;99.90;;;;;;5127222;28;20046;-79
2023/03/01 04:48:57;;;;;;;72.38;7.50;;;-2.40;99.90;;;;;;5125324;27;20138;-79
2023/03/01 04:51:23;;;;;;;43.67;7.65;;;-2.40;99.90;;;;;;5126090;28;20039;-78
2023/03/01 04:53:49;;;;;;;81.00;8.82;;;-2.40;99.90;;;;;;5126082;28;20122;-78
2023/03/01 04:56:15;;;;;;;18.83;6.80;;;-1.40;99.90;;;;;;5090359;28;20187;-78
2023/03/01 04:58:41;;;;;;;30.65;7.00;;;-2.40;99.90;;;;;;5126973;28;20118;-78
2023/03/01 05:01:15;;;;;;;28.65;6.25;;;-2.50;99.90;;;;;;5106594;28;20039;-78
2023/03/01 05:03:46;;;;;;;16.88;5.97;;;-2.50;99.90;;;;;;5091274;28;20043;-78
2023/03/01 05:06:12;;;;;;;16.38;6.72;;;-2.50;99.90;;;;;;5107524;28;20409;-78
2023/03/01 05:08:41;;;;;;;38.53;6.88;;;-2.00;99.90;;;;;;5073780;28;20051;-78
2023/03/01 05:11:08;;;;;;;18.83;6.93;;;-2.60;99.90;;;;;;5092113;27;20389;-78
2023/03/01 05:13:36;;;;;;;17.88;7.07;;;-2.30;99.90;;;;;;5128614;27;20078;-77
2023/03/01 05:16:02;;;;;;;17.67;6.60;;;-1.20;99.90;;;;;;5112199;27;20039;-77
2023/03/01 05:18:30;;;;;;;18.30;6.03;;;-2.70;99.90;;;;;;5109963;27;20051;-77
2023/03/01 05:21:03;;;;;;;12.55;6.93;;;-2.70;99.90;;;;;;5130080;27;20046;-78
2023/03/01 05:23:30;;;;;;;12.93;6.93;;;-2.70;99.90;;;;;;5129259;27;20046;-79
2023/03/01 05:26:03;;;;;;;11.07;6.47;;;-2.70;99.90;;;;;;5094017;27;20039;-79
2023/03/01 05:28:29;;;;;;;13.50;7.70;;;-2.80;99.90;;;;;;5111572;27;20047;-77
2023/03/01 05:30:56;;;;;;;9.38;6.55;;;-2.30;99.90;;;;;;5092732;27;20039;-78
2023/03/01 05:33:23;;;;;;;12.05;7.00;;;-2.80;99.90;;;;;;5094717;27;20043;-78
2023/03/01 05:35:49;;;;;;;12.05;6.82;;;-2.90;99.90;;;;;;5110125;27;20443;-78
2023/03/01 05:38:16;;;;;;;12.52;8.43;;;-2.80;99.90;;;;;;5110743;27;20092;-77
2023/03/01 05:40:44;;;;;;;12.63;6.95;;;-2.80;99.90;;;;;;5110880;27;20035;-78
2023/03/01 05:43:10;;;;;;;11.70;7.32;;;-2.90;99.90;;;;;;5092827;27;20043;-78
2023/03/01 05:45:38;;;;;;;13.15;7.80;;;-2.90;99.90;;;;;;5094173;27;20404;-78
2023/03/01 05:48:04;;;;;;;15.18;9.40;;;-2.90;99.90;;;;;;5108947;27;20111;-78
2023/03/01 05:50:34;;;;;;;16.13;8.65;;;-2.90;99.90;;;;;;5111669;27;20115;-78
2023/03/01 05:53:05;;;;;;;13.57;8.45;;;-2.90;99.90;;;;;;5109975;27;20430;-77
2023/03/01 05:55:32;;;;;;;44.65;10.77;;;-2.90;99.90;;;;;;5077566;27;20394;-77
2023/03/01 05:58:00;;;;;;;14.85;9.27;;;-1.20;99.90;;;;;;5093536;27;20043;-78
2023/03/01 06:00:27;;;;;;;13.95;8.65;;;-2.60;99.90;;;;;;5093204;27;20397;-77
2023/03/01 06:02:57;;;;;;;14.90;8.35;;;-2.90;99.90;;;;;;5110857;27;20057;-77
2023/03/01 06:05:25;;;;;;;16.10;9.38;;;-2.90;99.90;;;;;;5092069;27;20043;-77
2023/03/01 06:07:51;;;;;;;15.80;9.35;;;-2.90;99.90;;;;;;5129432;27;20039;-77
2023/03/01 06:10:19;;;;;;;17.40;9.80;;;-2.90;99.90;;;;;;5109761;27;20043;-77
2023/03/01 06:12:45;;;;;;;15.52;9.35;;;-2.90;99.90;;;;;;5109823;27;20046;-77
2023/03/01 06:15:13;;;;;;;16.67;9.60;;;-2.90;99.90;;;;;;5128556;27;20039;-77
2023/03/01 06:17:41;;;;;;;17.58;10.15;;;-3.00;99.90;;;;;;5109412;27;20044;-77
2023/03/01 06:20:22;;;;;;;16.27;9.32;;;-2.90;99.90;;;;;;5129469;27;20039;-77
2023/03/01 06:22:49;;;;;;;19.85;9.40;;;-3.00;99.90;;;;;;5108947;27;20127;-77
2023/03/01 06:25:18;;;;;;;17.83;9.90;;;-2.90;99.90;;;;;;5093298;27;20042;-77
2023/03/01 06:27:44;;;;;;;18.70;10.23;;;-2.10;99.90;;;;;;5109046;27;20051;-77
2023/03/01 06:30:13;;;;;;;19.45;10.23;;;-3.00;99.90;;;;;;5092833;27;20036;-77
2023/03/01 06:32:43;;;;;;;18.33;10.55;;;-3.00;99.90;;;;;;5110253;27;20109;-77
2023/03/01 06:35:14;;;;;;;16.70;10.05;;;-3.00;99.90;;;;;;5091658;27;20081;-76
2023/03/01 06:37:41;;;;;;;15.77;9.80;;;-3.00;99.90;;;;;;5110261;27;20040;-77
2023/03/01 06:40:08;;;;;;;14.38;9.38;;;-2.50;99.90;;;;;;5091446;27;20046;-77
2023/03/01 06:42:37;;;;;;;19.73;11.05;;;-3.00;99.90;;;;;;5093125;27;20527;-77
2023/03/01 06:45:04;;;;;;;18.45;11.18;;;-3.00;99.90;;;;;;5092037;27;20047;-77
2023/03/01 06:47:30;;;;;;;18.65;10.50;;;-3.00;99.90;;;;;;5108965;27;20068;-77
2023/03/01 06:49:56;;;;;;;18.92;11.30;;;-2.90;99.90;;;;;;5092646;27;20055;-77
2023/03/01 06:52:21;;;;;;;20.95;10.98;;;-2.90;99.90;;;;;;5108130;27;20043;-77
2023/03/01 06:54:47;;;;;;;32.72;11.35;;;-2.90;99.90;;;;;;5093298;27;20039;-78
2023/03/01 06:57:13;;;;;;;27.50;11.55;;;-2.90;99.90;;;;;;5091926;27;20035;-78
2023/03/01 06:59:38;;;;;;;20.50;11.38;;;-2.80;99.90;;;;;;5092528;27;20046;-77
2023/03/01 07:02:04;;;;;;;19.10;11.05;;;-4.10;99.90;;;;;;5092205;27;20105;-77
2023/03/01 07:04:30;;;;;;;18.25;10.15;;;-2.20;99.90;;;;;;5091926;27;20081;-78
2023/03/01 07:06:56;;;;;;;19.83;10.75;;;-2.70;99.90;;;;;;5075456;27;20043;-77
2023/03/01 07:09:23;;;;;;;15.38;10.18;;;-1.50;99.90;;;;;;5090926;27;20043;-80
2023/03/01 07:11:49;;;;;;;19.67;11.10;;;-1.00;99.90;;;;;;5109997;27;20051;-77
2023/03/01 07:14:15;;;;;;;20.20;10.07;;;-2.30;99.90;;;;;;5108251;27;20051;-76
2023/03/01 07:16:41;;;;;;;17.90;10.93;;;-0.90;99.90;;;;;;5075122;27;20078;-77
2023/03/01 07:19:07;;;;;;;23.00;11.32;;;-2.50;99.90;;;;;;5108148;27;20100;-77
2023/03/01 07:21:32;;;;;;;19.40;11.07;;;-2.50;99.90;;;;;;5091864;27;20046;-77
2023/03/01 07:23:58;;;;;;;18.30;11.13;;;-2.40;99.90;;;;;;5091834;27;20539;-77
2023/03/01 07:26:24;;;;;;;18.73;11.13;;;-2.30;99.90;;;;;;5090390;27;20088;-76
2023/03/01 07:28:49;;;;;;;19.08;11.07;;;-2.20;99.90;;;;;;5092195;27;20047;-77
2023/03/01 07:31:15;;;;;;;20.02;11.40;;;-2.20;99.90;;;;;;5073654;27;20120;-77
2023/03/01 07:33:41;;;;;;;17.63;10.98;;;-2.10;99.90;;;;;;5091412;28;20501;-77
2023/03/01 07:36:07;;;;;;;16.90;10.48;;;-0.50;99.90;;;;;;5090692;27;20042;-80
2023/03/01 07:38:33;;;;;;;19.02;11.60;;;-2.00;99.90;;;;;;5091494;28;20383;-79
2023/03/01 07:41:03;;;;;;;17.40;11.02;;;-1.90;99.90;;;;;;5074587;27;20053;-77
2023/03/01 07:43:30;;;;;;;19.33;11.18;;;-1.80;99.90;;;;;;5090833;27;20397;-77
2023/03/01 07:45:59;;;;;;;18.58;11.35;;;-1.00;99.90;;;;;;5109082;27;20049;-78
2023/03/01 07:48:24;;;;;;;20.90;12.25;;;-1.70;99.90;;;;;;5107220;28;20081;-78
2023/03/01 07:50:50;;;;;;;18.60;11.10;;;0.00;99.90;;;;;;5091654;28;20476;-79
2023/03/01 07:53:16;;;;;;;19.73;11.32;;;-2.50;99.90;;;;;;5107393;27;20043;-78
2023/03/01 07:55:42;;;;;;;18.67;11.50;;;-1.40;99.90;;;;;;5091143;28;20043;-77
2023/03/01 07:58:07;;;;;;;19.17;11.15;;;-1.30;99.90;;;;;;5091347;28;20087;-77
2023/03/01 08:00:33;;;;;;;19.35;11.82;;;-1.20;99.90;;;;;;5126041;28;20039;-79
2023/03/01 08:03:00;;;;;;;20.83;12.50;;;-1.10;99.90;;;;;;5075431;28;20130;-78
2023/03/01 08:05:26;;;;;;;19.73;12.65;;;0.10;99.90;;;;;;5090419;28;20085;-82
2023/03/01 08:07:53;;;;;;;22.35;13.38;;;-0.90;99.90;;;;;;5108878;28;20398;-81
2023/03/01 08:10:19;;;;;;;23.48;14.73;;;-0.70;99.90;;;;;;5073667;28;20061;-79
2023/03/01 08:12:45;;;;;;;27.38;15.85;;;0.20;99.90;;;;;;5091214;28;20035;-79
2023/03/01 08:15:11;;;;;;;28.40;17.15;;;0.00;99.90;;;;;;5091227;28;20627;-78
2023/03/01 08:17:36;;;;;;;23.60;15.68;;;0.90;99.90;;;;;;5090183;28;20043;-81
2023/03/01 08:20:05;;;;;;;24.90;15.05;;;0.80;99.90;;;;;;5074755;28;20039;-82
2023/03/01 08:22:31;;;;;;;23.25;16.13;;;2.00;99.90;;;;;;5090630;28;20438;-81
2023/03/01 08:24:57;;;;;;;21.52;14.65;;;1.40;99.90;;;;;;5091545;28;20135;-82
2023/03/01 08:27:23;;;;;;;30.55;16.30;;;1.80;99.90;;;;;;5090118;28;20079;-82
2023/03/01 08:29:48;;;;;;;21.27;14.63;;;2.10;99.90;;;;;;5074628;28;20141;-81
2023/03/01 08:32:14;;;;;;;22.95;15.65;;;2.30;99.90;;;;;;5073676;28;20046;-83
2023/03/01 08:34:40;;;;;;;27.92;15.15;;;3.90;99.90;;;;;;5107935;28;20085;-81
2023/03/01 08:37:05;;;;;;;23.48;15.30;;;2.40;99.90;;;;;;5108409;28;20534;-79
2023/03/01 08:39:31;;;;;;;26.27;17.27;;;2.80;99.90;;;;;;5106492;28;20039;-79
2023/03/01 08:41:57;;;;;;;31.77;19.13;;;2.50;99.90;;;;;;5108533;28;20043;-79
2023/03/01 08:44:23;;;;;;;31.40;18.48;;;2.60;99.90;;;;;;5107205;28;20138;-79
2023/03/01 08:46:49;;;;;;;32.05;19.50;;;2.70;99.90;;;;;;5093400;27;20054;-79
2023/03/01 08:49:18;;;;;;;33.17;18.65;;;2.80;99.90;;;;;;5077118;27;20051;-78
2023/03/01 08:51:45;;;;;;;31.38;20.05;;;3.10;99.90;;;;;;5111274;27;20032;-78
2023/03/01 08:54:16;;;;;;;32.45;18.42;;;3.10;99.90;;;;;;5112484;27;20148;-78
2023/03/01 08:56:42;;;;;;;29.45;18.65;;;3.40;99.90;;;;;;5110507;27;20518;-79
2023/03/01 08:59:10;;;;;;;30.33;19.35;;;3.70;99.90;;;;;;5112410;27;20035;-79
2023/03/01 09:01:36;;;;;;;31.48;19.95;;;3.90;99.90;;;;;;5110519;27;20047;-78
2023/03/01 09:04:03;;;;;;;33.72;18.25;;;4.10;99.90;;;;;;5111806;27;20046;-79
2023/03/01 09:06:32;;;;;;;30.05;18.77;;;4.30;99.90;;;;;;5110954;27;20047;-79
2023/03/01 09:08:58;;;;;;;30.25;19.15;;;4.40;99.90;;;;;;5093867;27;20078;-78
2023/03/01 09:11:24;;;;;;;31.75;19.05;;;4.50;99.90;;;;;;5112324;27;20039;-79
2023/03/01 09:13:50;;;;;;;35.05;20.80;;;4.50;99.90;;;;;;5093115;27;20167;-79
2023/03/01 09:16:18;;;;;;;32.92;20.15;;;4.60;99.90;;;;;;5095120;27;20039;-78
2023/03/01 09:18:44;;;;;;;32.55;19.00;;;4.70;99.90;;;;;;5110347;27;20053;-78
2023/03/01 09:21:15;;;;;;;28.42;19.30;;;6.10;99.90;;;;;;5111184;27;20568;-79
2023/03/01 09:23:44;;;;;;;26.83;17.92;;;5.20;99.90;;;;;;5110956;27;20088;-78
2023/03/01 09:26:12;;;;;;;28.20;18.48;;;4.90;99.90;;;;;;5110343;27;20039;-78
2023/03/01 09:28:38;;;;;;;27.10;18.83;;;5.10;99.90;;;;;;5094873;27;20095;-78
2023/03/01 09:31:04;;;;;;;32.90;20.38;;;5.10;99.90;;;;;;5093048;27;20031;-78
2023/03/01 09:33:31;;;;;;;31.70;18.63;;;5.20;99.90;;;;;;5094656;27;20047;-78
2023/03/01 09:36:13;;;;;;;29.15;18.42;;;5.30;99.90;;;;;;5110180;27;20050;-78
2023/03/01 09:38:39;;;;;;;31.73;19.10;;;5.40;99.90;;;;;;5094200;27;20111;-78
2023/03/01 09:41:17;;;;;;;27.88;18.83;;;5.40;99.90;;;;;;5094052;27;20130;-79
2023/03/01 09:43:45;;;;;;;29.85;18.42;;;5.50;99.90;;;;;;5110382;27;20050;-78
2023/03/01 09:46:16;;;;;;;25.20;17.52;;;5.70;99.90;;;;;;5095247;27;20035;-78
2023/03/01 09:48:55;;;;;;;28.60;18.30;;;6.10;99.90;;;;;;5093090;27;20074;-78
2023/03/01 09:51:31;;;;;;;26.30;15.88;;;5.90;99.90;;;;;;5110540;27;20055;-78
2023/03/01 09:54:00;;;;;;;25.70;15.98;;;6.00;99.90;;;;;;5110989;27;20043;-78
2023/03/01 09:56:57;;;;;;;24.52;16.25;;;6.10;99.90;;;;;;5092556;27;20039;-78
2023/03/01 09:59:34;;;;;;;23.08;16.40;;;6.30;99.90;;;;;;5094037;27;20058;-78
2023/03/01 10:02:29;;;;;;;21.30;14.52;;;6.40;99.90;;;;;;5093138;27;20054;-78
2023/03/01 10:05:05;;;;;;;36.78;14.73;;;6.40;99.90;;;;;;5100594;27;20050;-78
2023/03/01 10:07:57;;;;;;;20.42;14.45;;;6.60;99.90;;;;;;5111680;27;20087;-78
2023/03/01 10:10:32;;;;;;;23.20;14.88;;;6.70;99.90;;;;;;5093136;27;20035;-78
2023/03/01 10:13:12;;;;;;;19.10;13.05;;;6.80;99.90;;;;;;5109990;27;20054;-78
2023/03/01 10:15:45;;;;;;;24.75;14.68;;;6.90;99.90;;;;;;5111354;27;20067;-79
2023/03/01 10:18:21;;;;;;;24.35;15.20;;;7.00;99.90;;;;;;5109701;27;20304;-78
2023/03/01 10:20:52;;;;;;;24.00;16.05;;;8.30;99.90;;;;;;5110620;27;20043;-78
2023/03/01 10:23:18;;;;;;;20.08;13.98;;;7.50;99.90;;;;;;5093039;27;20398;-78
2023/03/01 10:25:53;;;;;;;23.13;15.23;;;7.40;99.90;;;;;;5110111;27;20039;-78
2023/03/01 10:28:25;;;;;;;21.23;15.27;;;7.40;99.90;;;;;;5110288;27;20050;-78
2023/03/01 10:30:55;;;;;;;24.20;13.75;;;7.50;99.90;;;;;;5092248;27;20082;-78
2023/03/01 10:33:53;;;;;;;22.15;14.90;;;7.60;99.90;;;;;;5077116;27;20123;-79
2023/03/01 10:36:18;;;;;;;21.48;13.68;;;8.20;99.90;;;;;;5090391;27;20050;-79
2023/03/01 10:39:12;;;;;;;23.58;14.45;;;7.80;99.90;;;;;;5109199;27;20089;-78
2023/03/01 10:42:05;;;;;;;21.92;13.80;;;8.00;99.90;;;;;;5091048;27;20055;-78
2023/03/01 10:44:48;;;;;;;19.23;14.00;;;8.00;99.90;;;;;;5091304;27;20054;-78
2023/03/01 10:47:17;;;;;;;18.98;12.25;;;8.00;99.90;;;;;;5092530;27;20082;-78
2023/03/01 10:50:03;;;;;;;22.40;12.57;;;8.10;99.90;;;;;;5109629;27;20109;-78
2023/03/01 10:52:40;;;;;;;18.55;12.15;;;8.10;99.90;;;;;;5108663;27;20134;-78
2023/03/01 10:55:09;;;;;;;17.67;12.68;;;8.20;99.90;;;;;;5109785;27;20080;-78
2023/03/01 10:57:40;;;;;;;15.23;11.52;;;8.30;99.90;;;;;;5109168;27;20051;-78
2023/03/01 11:00:20;;;;;;;16.13;11.75;;;8.40;99.90;;;;;;5092915;27;20126;-78
2023/03/01 11:02:49;;;;;;;21.10;12.75;;;8.50;99.90;;;;;;5110681;27;20079;-78
2023/03/01 11:05:23;;;;;;;16.05;11.25;;;8.50;99.90;;;;;;5091088;27;20043;-78
2023/03/01 11:07:57;;;;;;;16.20;12.35;;;8.60;99.90;;;;;;5109887;27;20444;-78
2023/03/01 11:10:24;;;;;;;15.55;12.10;;;8.60;99.90;;;;;;5108281;27;20366;-78
2023/03/01 11:12:52;;;;;;;18.27;11.52;;;8.70;99.90;;;;;;5091962;27;20028;-78
2023/03/01 11:15:27;;;;;;;15.65;10.70;;;8.80;99.90;;;;;;5075847;27;20133;-78
2023/03/01 11:17:55;;;;;;;15.18;10.52;;;8.80;99.90;;;;;;5091643;27;20391;-78
2023/03/01 11:20:33;;;;;;;16.75;11.45;;;8.90;99.90;;;;;;5093087;27;20043;-78
2023/03/01 11:23:05;;;;;;;13.98;10.55;;;8.90;99.90;;;;;;5108069;27;20047;-77
2023/03/01 11:25:39;;;;;;;9.82;7.60;;;8.90;99.90;;;;;;5091833;27;20039;-78
2023/03/01 11:28:06;;;;;;;21.80;10.50;;;9.00;99.90;;;;;;5108954;27;20080;-77
2023/03/01 11:30:39;;;;;;;13.43;9.40;;;9.40;99.90;;;;;;5107948;27;20126;-78
2023/03/01 11:33:07;;;;;;;13.88;9.68;;;9.10;99.90;;;;;;5109764;27;20494;-78
2023/03/01 11:35:37;;;;;;;13.65;9.82;;;10.00;99.90;;;;;;5090746;27;20083;-78
2023/03/01 11:38:19;;;;;;;18.98;10.73;;;9.20;99.90;;;;;;5108894;27;20103;-78
2023/03/01 11:40:59;;;;;;;16.15;9.07;;;9.40;99.90;;;;;;5092173;27;20066;-78
2023/03/01 11:44:01;;;;;;;13.95;9.90;;;9.10;99.90;;;;;;5090640;27;20047;-78
2023/03/01 11:46:35;;;;;;;13.35;8.50;;;9.30;99.90;;;;;;5109333;27;20097;-78
2023/03/01 11:49:16;;;;;;;16.83;10.63;;;9.40;99.90;;;;;;5126281;27;20058;-78
2023/03/01 11:52:06;;;;;;;11.73;9.07;;;9.30;99.90;;;;;;5107698;28;20494;-78
2023/03/01 11:54:50;;;;;;;12.82;10.25;;;9.30;99.90;;;;;;5092360;27;20506;-77
2023/03/01 11:57:36;;;;;;;12.80;9.13;;;9.40;99.90;;;;;;5107566;28;20078;-78
2023/03/01 12:00:08;;;;;;;15.30;11.18;;;9.50;99.90;;;;;;5107945;28;20051;-78
2023/03/01 12:02:55;;;;;;;13.63;8.70;;;9.50;99.90;;;;;;5109276;28;20051;-78
2023/03/01 12:05:48;;;;;;;10.40;7.40;;;9.60;99.90;;;;;;5107044;28;20047;-78
2023/03/01 12:08:33;;;;;;;16.33;9.32;;;9.60;99.90;;;;;;5108243;28;20058;-78
2023/03/01 12:11:21;;;;;;;15.02;9.32;;;9.60;99.90;;;;;;5109269;28;20053;-78
2023/03/01 12:14:02;;;;;;;17.90;9.27;;;9.60;99.90;;;;;;5090270;28;20401;-78
2023/03/01 12:17:07;;;;;;;14.95;9.70;;;9.70;99.90;;;;;;5108449;28;20051;-78
2023/03/01 12:19:55;;;;;;;19.35;11.63;;;9.80;99.90;;;;;;5091753;27;20188;-84
2023/03/01 12:22:46;;;;;;;16.30;10.73;;;9.70;99.90;;;;;;5111261;27;20259;-77
2023/03/01 12:25:30;;;;;;;17.10;11.10;;;9.80;99.90;;;;;;5095800;27;20514;-77
2023/03/01 12:27:59;;;;;;;14.10;10.10;;;9.80;99.90;;;;;;5112704;27;20042;-78
2023/03/01 12:30:52;;;;;;;13.60;10.13;;;9.80;99.90;;;;;;5111424;27;20395;-77
2023/03/01 12:33:34;;;;;;;13.57;9.95;;;9.90;99.90;;;;;;5113412;27;20405;-78
2023/03/01 12:36:15;;;;;;;16.38;8.85;;;9.90;99.90;;;;;;5094676;27;20047;-78
2023/03/01 12:39:15;;;;;;;12.50;7.70;;;10.00;99.90;;;;;;5111953;27;20043;-78
2023/03/01 12:41:56;;;;;;;15.00;8.95;;;10.10;99.90;;;;;;5113357;27;20470;-79
2023/03/01 12:44:43;;;;;;;11.57;7.20;;;10.20;99.90;;;;;;5111336;27;20068;-86
2023/03/01 12:47:41;;;;;;;13.85;8.43;;;10.20;99.90;;;;;;5112227;27;20374;-81
2023/03/01 12:50:23;;;;;;;12.82;8.20;;;10.30;99.90;;;;;;5112668;27;20055;-80
2023/03/01 12:52:58;;;;;;;13.50;8.60;;;11.20;99.90;;;;;;5094151;27;20482;-80
2023/03/01 12:55:23;;;;;;;11.55;8.18;;;10.30;99.90;;;;;;5111610;27;20043;-80
2023/03/01 12:58:24;;;;;;;12.70;9.15;;;10.30;99.90;;;;;;5111603;27;20054;-80